createdAt,value
2023-01-09T00:01:36.715Z,98772.19
2023-01-09T00:04:04.531Z,98764.78
2023-01-09T00:06:31.853Z,98763.44
2023-01-09T00:08:58.947Z,98761.34
2023-01-09T00:11:29.187Z,98756.09
2023-01-09T00:13:56.112Z,98750.34
2023-01-09T00:16:23.428Z,98757.41
2023-01-09T00:18:50.825Z,98759.13
2023-01-09T00:21:18.086Z,98761.78
2023-01-09T00:23:47.175Z,98754.78
2023-01-09T00:26:19.969Z,98761.00
2023-01-09T00:28:49.072Z,98740.63
2023-01-09T00:31:18.302Z,98743.22
2023-01-09T00:34:01.665Z,98743.47
2023-01-09T00:36:29.641Z,98746.66
2023-01-09T00:38:57.309Z,98746.16
2023-01-09T00:41:44.754Z,98735.66
2023-01-09T00:44:30.215Z,98745.88
2023-01-09T00:47:07.843Z,98742.28
2023-01-09T00:49:37.717Z,98742.41
2023-01-09T00:52:09.139Z,98743.16
2023-01-09T00:54:37.400Z,98743.53
2023-01-09T00:57:04.478Z,98736.16
2023-01-09T00:59:32.859Z,98737.22
2023-01-09T01:02:03.150Z,98731.34
2023-01-09T01:04:49.579Z,98732.75
2023-01-09T01:07:35.029Z,98724.25
2023-01-09T01:10:02.264Z,98726.59
2023-01-09T01:12:29.598Z,98725.69
2023-01-09T01:14:56.579Z,98724.91
2023-01-09T01:17:23.815Z,98723.97
2023-01-09T01:19:50.763Z,98725.81
2023-01-09T01:22:17.786Z,98723.97
2023-01-09T01:24:45.179Z,98729.13
2023-01-09T01:27:12.506Z,98724.91
2023-01-09T01:29:39.561Z,98737.75
2023-01-09T01:32:07.113Z,98740.44
2023-01-09T01:34:34.714Z,98749.03
2023-01-09T01:37:02.001Z,98747.97
2023-01-09T01:39:29.087Z,98743.59
2023-01-09T01:41:56.282Z,98753.22
2023-01-09T01:45:12.823Z,98754.78
2023-01-09T01:48:08.821Z,98755.94
2023-01-09T01:50:48.637Z,98753.69
2023-01-09T01:53:20.581Z,98756.31
2023-01-09T01:56:14.535Z,98761.84
2023-01-09T01:59:06.200Z,98758.22
2023-01-09T02:01:34.554Z,98758.34
2023-01-09T02:04:02.654Z,98761.09
2023-01-09T02:06:31.099Z,98767.59
2023-01-09T02:08:58.286Z,98754.53
2023-01-09T02:11:25.449Z,98755.22
2023-01-09T02:13:53.025Z,98750.00
2023-01-09T02:16:33.268Z,98741.94
2023-01-09T02:19:25.191Z,98744.56
2023-01-09T02:22:27.739Z,98726.22
2023-01-09T02:25:29.625Z,98721.25
2023-01-09T02:28:25.051Z,98740.25
2023-01-09T02:31:27.593Z,98751.66
2023-01-09T02:34:26.479Z,98760.25
2023-01-09T02:37:05.020Z,98760.50
2023-01-09T02:39:43.936Z,98758.81
2023-01-09T02:42:27.551Z,98762.53
2023-01-09T02:44:54.721Z,98752.13
2023-01-09T02:47:21.673Z,98753.16
2023-01-09T02:49:56.360Z,98750.66
2023-01-09T02:52:34.020Z,98758.34
2023-01-09T02:55:45.581Z,98775.84
2023-01-09T02:59:08.352Z,98775.31
2023-01-09T03:02:02.765Z,98789.25
2023-01-09T03:04:53.423Z,98796.56
2023-01-09T03:08:04.544Z,98811.16
2023-01-09T03:11:07.788Z,98819.84
2023-01-09T03:13:56.621Z,98819.88
2023-01-09T03:16:37.188Z,98833.25
2023-01-09T03:19:11.779Z,98840.53
2023-01-09T03:21:39.853Z,98854.19
2023-01-09T03:24:07.084Z,98855.75
2023-01-09T03:26:34.784Z,98856.22
2023-01-09T03:29:02.369Z,98853.22
2023-01-09T03:31:29.480Z,98865.09
2023-01-09T03:33:56.807Z,98871.66
2023-01-09T03:36:25.750Z,98871.72
2023-01-09T03:38:52.900Z,98872.78
2023-01-09T03:41:20.093Z,98871.13
2023-01-09T03:43:48.667Z,98883.97
2023-01-09T03:46:16.783Z,98885.69
2023-01-09T03:48:44.925Z,98873.59
2023-01-09T03:51:11.950Z,98895.56
2023-01-09T03:53:39.964Z,98903.56
2023-01-09T03:56:07.623Z,98925.44
2023-01-09T03:58:34.586Z,98925.19
2023-01-09T04:01:04.475Z,98924.34
2023-01-09T04:03:33.818Z,98933.94
2023-01-09T04:06:01.028Z,98947.97
2023-01-09T04:08:29.488Z,98950.03
2023-01-09T04:10:56.717Z,98960.59
2023-01-09T04:13:24.128Z,98973.72
2023-01-09T04:15:51.099Z,98980.78
2023-01-09T04:18:18.165Z,98979.81
2023-01-09T04:20:48.595Z,98990.19
2023-01-09T04:23:16.596Z,98985.13
2023-01-09T04:25:43.744Z,99014.72
2023-01-09T04:28:10.638Z,99013.09
2023-01-09T04:30:37.649Z,99003.63
2023-01-09T04:33:05.401Z,99014.69
2023-01-09T04:35:33.012Z,99020.06
2023-01-09T04:38:00.916Z,99020.22
2023-01-09T04:40:28.312Z,99028.88
2023-01-09T04:42:56.974Z,99046.44
2023-01-09T04:45:24.056Z,99052.50
2023-01-09T04:47:51.088Z,99059.56
2023-01-09T04:50:18.950Z,99067.72
2023-01-09T04:52:45.944Z,99074.78
2023-01-09T04:55:13.357Z,99084.22
2023-01-09T04:57:40.405Z,99082.50
2023-01-09T05:00:12.580Z,99080.78
2023-01-09T05:02:43.206Z,99090.38
2023-01-09T05:05:11.818Z,99091.44
2023-01-09T05:07:39.313Z,99089.00
2023-01-09T05:10:07.742Z,99095.75
2023-01-09T05:12:36.370Z,99094.94
2023-01-09T05:15:05.064Z,99111.63
2023-01-09T05:17:32.420Z,99110.84
2023-01-09T05:20:01.331Z,99117.06
2023-01-09T05:22:28.983Z,99108.47
2023-01-09T05:24:56.301Z,99120.84
2023-01-09T05:27:23.436Z,99109.72
2023-01-09T05:29:50.495Z,99122.78
2023-01-09T05:32:19.056Z,99115.06
2023-01-09T05:34:46.396Z,99126.44
2023-01-09T05:37:13.767Z,99118.53
2023-01-09T05:39:40.981Z,99131.03
2023-01-09T05:42:07.986Z,99135.28
2023-01-09T05:44:34.944Z,99138.91
2023-01-09T05:47:02.985Z,99138.09
2023-01-09T05:49:30.578Z,99163.41
2023-01-09T05:51:59.684Z,99152.00
2023-01-09T05:54:28.417Z,99159.72
2023-01-09T05:56:55.949Z,99177.91
2023-01-09T05:59:23.619Z,99169.13
2023-01-09T06:01:51.054Z,99176.97
2023-01-09T06:04:19.719Z,99184.84
2023-01-09T06:06:46.703Z,99187.56
2023-01-09T06:09:13.950Z,99182.94
2023-01-09T06:11:41.055Z,99185.84
2023-01-09T06:14:08.307Z,99188.28
2023-01-09T06:16:35.282Z,99180.41
2023-01-09T06:19:03.498Z,99189.94
2023-01-09T06:21:30.583Z,99200.56
2023-01-09T06:23:58.640Z,99183.94
2023-01-09T06:26:27.027Z,99191.69
2023-01-09T06:28:55.911Z,99195.13
2023-01-09T06:31:24.767Z,99183.84
2023-01-09T06:33:52.331Z,99190.78
2023-01-09T06:36:22.227Z,99192.59
2023-01-09T06:38:49.962Z,99198.50
2023-01-09T06:41:17.403Z,99202.13
2023-01-09T06:43:44.635Z,99193.25
2023-01-09T06:46:11.777Z,99192.34
2023-01-09T06:48:39.256Z,99193.16
2023-01-09T06:51:06.376Z,99202.84
2023-01-09T06:53:35.348Z,99196.63
2023-01-09T06:56:02.865Z,99194.09
2023-01-09T06:58:29.934Z,99202.84
2023-01-09T07:00:59.448Z,99200.28
2023-01-09T07:03:26.500Z,99193.19
2023-01-09T07:05:54.092Z,99193.47
2023-01-09T07:08:21.572Z,99209.16
2023-01-09T07:10:48.627Z,99197.03
2023-01-09T07:13:15.783Z,99195.50
2023-01-09T07:15:42.764Z,99196.50
2023-01-09T07:18:09.818Z,99201.13
2023-01-09T07:20:40.849Z,99199.47
2023-01-09T07:23:12.775Z,99194.22
2023-01-09T07:25:42.422Z,99201.47
2023-01-09T07:28:09.495Z,99198.06
2023-01-09T07:30:37.111Z,99198.06
2023-01-09T07:33:04.323Z,99207.47
2023-01-09T07:35:32.333Z,99215.41
2023-01-09T07:37:59.403Z,99207.50
2023-01-09T07:40:27.209Z,99202.44
2023-01-09T07:42:55.359Z,99209.22
2023-01-09T07:45:22.352Z,99229.91
2023-01-09T07:47:49.625Z,99217.91
2023-01-09T07:50:16.896Z,99227.50
2023-01-09T07:52:46.262Z,99228.19
2023-01-09T07:55:15.003Z,99223.84
2023-01-09T07:57:50.428Z,99235.94
2023-01-09T08:00:23.985Z,99228.69
2023-01-09T08:02:54.657Z,99235.59
2023-01-09T08:05:24.956Z,99225.13
2023-01-09T08:07:52.066Z,99232.88
2023-01-09T08:10:20.394Z,99225.00
2023-01-09T08:12:49.886Z,99228.38
2023-01-09T08:15:19.912Z,99218.81
2023-01-09T08:17:47.409Z,99231.91
2023-01-09T08:20:17.277Z,99213.41
2023-01-09T08:22:50.431Z,99213.31
2023-01-09T08:25:18.468Z,99214.13
2023-01-09T08:27:46.325Z,99219.31
2023-01-09T08:30:14.190Z,99221.03
2023-01-09T08:32:41.573Z,99218.31
2023-01-09T08:35:10.059Z,99218.19
2023-01-09T08:37:43.853Z,99220.59
2023-01-09T08:40:15.800Z,99225.75
2023-01-09T08:43:01.671Z,99230.94
2023-01-09T08:45:47.640Z,99231.78
2023-01-09T08:48:14.755Z,99230.94
2023-01-09T08:50:42.204Z,99234.47
2023-01-09T08:53:10.120Z,99236.06
2023-01-09T08:55:37.072Z,99238.66
2023-01-09T08:58:04.150Z,99246.44
2023-01-09T09:00:34.315Z,99260.41
2023-01-09T09:03:02.344Z,99257.72
2023-01-09T09:05:31.643Z,99268.25
2023-01-09T09:07:59.440Z,99259.44
2023-01-09T09:10:29.069Z,99257.56
2023-01-09T09:12:58.393Z,99250.63
2023-01-09T09:15:29.707Z,99254.88
2023-01-09T09:18:01.128Z,99263.44
2023-01-09T09:20:37.084Z,99267.53
2023-01-09T09:23:05.706Z,99260.47
2023-01-09T09:25:33.012Z,99242.91
2023-01-09T09:28:01.312Z,99270.13
2023-01-09T09:30:28.813Z,99261.56
2023-01-09T09:32:56.329Z,99256.47
2023-01-09T09:35:23.528Z,99263.44
2023-01-09T09:38:00.267Z,99254.69
2023-01-09T09:40:50.401Z,99261.63
2023-01-09T09:43:45.918Z,99273.19
2023-01-09T09:46:25.555Z,99260.69
2023-01-09T09:48:59.403Z,99265.00
2023-01-09T09:51:33.461Z,99269.13
2023-01-09T09:54:20.303Z,99270.06
2023-01-09T09:56:58.294Z,99269.94
2023-01-09T09:59:32.324Z,99273.44
2023-01-09T10:02:24.223Z,99280.50
2023-01-09T10:05:34.312Z,99278.59
2023-01-09T10:08:44.457Z,99281.28
2023-01-09T10:12:13.907Z,99280.16
2023-01-09T10:14:41.285Z,99281.06
2023-01-09T10:17:32.381Z,99287.19
2023-01-09T10:20:27.333Z,99298.47
2023-01-09T10:23:22.526Z,99286.19
2023-01-09T10:26:01.829Z,99286.03
2023-01-09T10:29:32.737Z,99282.44
2023-01-09T10:32:14.795Z,99279.81
2023-01-09T10:34:57.661Z,99278.09
2023-01-09T10:37:46.639Z,99275.47
2023-01-09T10:40:27.133Z,99272.72
2023-01-09T10:43:04.419Z,99272.47
2023-01-09T10:45:42.647Z,99270.66
2023-01-09T10:48:32.170Z,99272.22
2023-01-09T10:50:59.595Z,99269.50
2023-01-09T10:53:40.158Z,99267.16
2023-01-09T10:56:39.760Z,99270.91
2023-01-09T10:59:10.140Z,99281.66
2023-01-09T11:01:40.581Z,99272.31
2023-01-09T11:04:36.067Z,99267.31
2023-01-09T11:07:18.500Z,99264.22
2023-01-09T11:10:08.360Z,99272.59
2023-01-09T11:12:36.712Z,99260.94
2023-01-09T11:15:29.227Z,99256.94
2023-01-09T11:18:18.018Z,99259.19
2023-01-09T11:20:45.970Z,99253.41
2023-01-09T11:23:32.695Z,99260.44
2023-01-09T11:26:02.701Z,99257.97
2023-01-09T11:28:30.027Z,99255.03
2023-01-09T11:31:04.420Z,99252.56
2023-01-09T11:33:38.628Z,99272.78
2023-01-09T11:36:15.917Z,99279.84
2023-01-09T11:38:58.798Z,99277.22
2023-01-09T11:41:35.139Z,99286.06
2023-01-09T11:44:04.958Z,99273.97
2023-01-09T11:46:44.465Z,99284.69
2023-01-09T11:49:20.924Z,99272.50
2023-01-09T11:52:19.730Z,99270.91
2023-01-09T11:55:01.080Z,99276.31
2023-01-09T11:57:28.400Z,99274.78
2023-01-09T12:00:01.398Z,99281.84
2023-01-09T12:02:59.524Z,99276.84
2023-01-09T12:05:57.185Z,99277.63
2023-01-09T12:08:41.125Z,99284.44
2023-01-09T12:11:40.367Z,99271.06
2023-01-09T12:14:19.388Z,99265.78
2023-01-09T12:17:53.961Z,99262.41
2023-01-09T12:20:48.298Z,99253.69
2023-01-09T12:23:43.638Z,99260.28
2023-01-09T12:26:15.733Z,99256.41
2023-01-09T12:29:16.982Z,99252.50
2023-01-09T12:31:46.690Z,99262.97
2023-01-09T12:35:00.345Z,99257.56
2023-01-09T12:37:47.348Z,99264.44
2023-01-09T12:40:57.556Z,99278.44
2023-01-09T12:43:46.609Z,99270.84
2023-01-09T12:46:28.618Z,99269.94
2023-01-09T12:49:31.121Z,99297.72
2023-01-09T12:52:23.286Z,99277.56
2023-01-09T12:55:13.041Z,99291.44
2023-01-09T12:57:48.658Z,99272.97
2023-01-09T13:00:32.285Z,99285.34
2023-01-09T13:03:21.507Z,99288.53
2023-01-09T13:05:54.418Z,99303.19
2023-01-09T13:08:40.717Z,99295.56
2023-01-09T13:11:20.387Z,99289.41
2023-01-09T13:14:11.871Z,99295.41
2023-01-09T13:16:46.771Z,99293.22
2023-01-09T13:19:25.399Z,99306.19
2023-01-09T13:21:53.839Z,99307.81
2023-01-09T13:24:57.693Z,99309.75
2023-01-09T13:27:31.370Z,99310.84
2023-01-09T13:30:14.012Z,99310.88
2023-01-09T13:33:31.553Z,99322.28
2023-01-09T13:35:59.832Z,99319.84
2023-01-09T13:38:30.932Z,99307.91
2023-01-09T13:41:45.578Z,99303.56
2023-01-09T13:44:20.316Z,99320.19
2023-01-09T13:46:52.281Z,99315.84
2023-01-09T13:50:01.481Z,99318.16
2023-01-09T13:52:44.738Z,99320.44
2023-01-09T13:55:11.607Z,99323.28
2023-01-09T13:57:43.817Z,99322.81
2023-01-09T14:00:14.848Z,99328.81
2023-01-09T14:02:42.480Z,99339.66
2023-01-09T14:05:16.037Z,99345.16
2023-01-09T14:07:49.456Z,99326.84
2023-01-09T14:10:27.992Z,99341.00
2023-01-09T14:12:58.329Z,99340.50
2023-01-09T14:15:40.457Z,99349.38
2023-01-09T14:18:32.673Z,99341.81
2023-01-09T14:21:01.237Z,99347.97
2023-01-09T14:26:42.914Z,99364.53
2023-01-09T14:29:31.331Z,99379.44
2023-01-09T14:32:23.038Z,99381.38
2023-01-09T14:35:21.595Z,99398.06
2023-01-09T14:38:05.572Z,99409.38
2023-01-09T14:40:36.038Z,99396.34
2023-01-09T14:43:28.812Z,99401.81
2023-01-09T14:46:05.193Z,99404.41
2023-01-09T14:48:34.413Z,99417.59
2023-01-09T14:51:05.582Z,99423.84
2023-01-09T14:53:40.712Z,99428.28
2023-01-09T14:56:31.866Z,99434.50
2023-01-09T14:59:26.175Z,99431.91
2023-01-09T15:01:58.154Z,99438.81
2023-01-09T15:04:40.162Z,99446.53
2023-01-09T15:07:19.768Z,99451.94
2023-01-09T15:09:48.305Z,99454.47
2023-01-09T15:12:24.534Z,99446.78
2023-01-09T15:14:56.906Z,99465.91
2023-01-09T15:17:35.558Z,99455.03
2023-01-09T15:20:06.820Z,99468.03
2023-01-09T15:22:37.502Z,99468.56
2023-01-09T15:25:38.092Z,99467.28
2023-01-09T15:28:32.326Z,99474.53
2023-01-09T15:31:11.092Z,99472.00
2023-01-09T15:33:40.753Z,99466.78
2023-01-09T15:36:22.501Z,99464.06
2023-01-09T15:38:52.138Z,99465.94
2023-01-09T15:41:47.645Z,99475.03
2023-01-09T15:44:30.316Z,99473.41
2023-01-09T15:47:01.084Z,99482.16
2023-01-09T15:49:28.909Z,99480.66
2023-01-09T15:51:56.785Z,99477.25
2023-01-09T15:54:31.342Z,99489.47
2023-01-09T15:57:34.260Z,99494.91
2023-01-09T16:00:41.477Z,99496.78
2023-01-09T16:03:21.888Z,99501.28
2023-01-09T16:06:06.520Z,99502.09
2023-01-09T16:08:42.639Z,99508.91
2023-01-09T16:11:39.210Z,99509.00
2023-01-09T16:14:38.698Z,99522.03
2023-01-09T16:17:16.563Z,99520.22
2023-01-09T16:19:54.264Z,99530.69
2023-01-09T16:22:32.879Z,99527.28
2023-01-09T16:25:37.104Z,99544.66
2023-01-09T16:28:27.282Z,99546.31
2023-01-09T16:31:03.025Z,99553.31
2023-01-09T16:33:31.598Z,99569.97
2023-01-09T16:35:59.261Z,99561.06
2023-01-09T16:38:27.529Z,99564.53
2023-01-09T16:41:24.404Z,99572.44
2023-01-09T16:43:52.108Z,99576.66
2023-01-09T16:46:21.429Z,99578.41
2023-01-09T16:48:49.677Z,99581.00
2023-01-09T16:51:21.814Z,99581.00
2023-01-09T16:53:49.906Z,99584.63
2023-01-09T16:56:29.901Z,99592.34
2023-01-09T16:58:58.303Z,99595.94
2023-01-09T17:01:25.412Z,99595.72
2023-01-09T17:03:52.719Z,99594.75
2023-01-09T17:06:31.404Z,99606.91
2023-01-09T17:08:59.447Z,99609.63
2023-01-09T17:11:31.922Z,99620.22
2023-01-09T17:14:00.705Z,99624.69
2023-01-09T17:16:29.472Z,99629.09
2023-01-09T17:18:56.957Z,99623.13
2023-01-09T17:21:29.034Z,99635.41
2023-01-09T17:24:15.670Z,99639.00
2023-01-09T17:27:05.400Z,99644.16
2023-01-09T17:29:34.598Z,99639.06
2023-01-09T17:32:02.112Z,99642.63
2023-01-09T17:34:29.104Z,99657.34
2023-01-09T17:36:56.340Z,99659.00
2023-01-09T17:39:23.747Z,99662.72
2023-01-09T17:41:50.993Z,99664.50
2023-01-09T17:44:18.142Z,99674.84
2023-01-09T17:46:45.433Z,99677.50
2023-01-09T17:49:21.474Z,99679.28
2023-01-09T17:51:50.733Z,99687.25
2023-01-09T17:54:21.407Z,99688.91
2023-01-09T17:56:51.145Z,99701.19
2023-01-09T17:59:18.463Z,99702.91
2023-01-09T18:01:45.908Z,99706.34
2023-01-09T18:04:13.065Z,99715.81
2023-01-09T18:06:40.545Z,99719.28
2023-01-09T18:09:13.568Z,99728.03
2023-01-09T18:11:41.126Z,99739.31
2023-01-09T18:14:10.399Z,99748.03
2023-01-09T18:16:38.048Z,99748.03
2023-01-09T18:19:05.418Z,99759.38
2023-01-09T18:21:32.941Z,99764.59
2023-01-09T18:24:02.373Z,99775.88
2023-01-09T18:26:29.713Z,99775.88
2023-01-09T18:28:59.731Z,99784.53
2023-01-09T18:31:30.455Z,99782.88
2023-01-09T18:34:02.266Z,99788.00
2023-01-09T18:36:30.241Z,99793.31
2023-01-09T18:39:03.011Z,99800.38
2023-01-09T18:41:31.881Z,99796.81
2023-01-09T18:44:01.556Z,99815.13
2023-01-09T18:46:32.708Z,99809.94
2023-01-09T18:49:03.964Z,99816.13
2023-01-09T18:51:33.714Z,99820.53
2023-01-09T18:54:00.984Z,99815.19
2023-01-09T18:56:28.234Z,99824.72
2023-01-09T18:58:58.097Z,99831.63
2023-01-09T19:01:30.462Z,99828.22
2023-01-09T19:03:59.833Z,99830.91
2023-01-09T19:06:29.422Z,99841.25
2023-01-09T19:08:59.489Z,99843.00
2023-01-09T19:11:28.052Z,99841.09
2023-01-09T19:13:55.448Z,99856.84
2023-01-09T19:16:22.870Z,99863.75
2023-01-09T19:18:50.382Z,99870.75
2023-01-09T19:21:23.673Z,99871.59
2023-01-09T19:23:51.426Z,99861.97
2023-01-09T19:26:21.619Z,99873.31
2023-01-09T19:28:50.298Z,99867.19
2023-01-09T19:31:19.138Z,99875.03
2023-01-09T19:33:47.429Z,99885.50
2023-01-09T19:36:14.887Z,99882.09
2023-01-09T19:38:42.179Z,99876.03
2023-01-09T19:41:20.970Z,99889.03
2023-01-09T19:43:48.683Z,99890.78
2023-01-09T19:46:19.999Z,99889.78
2023-01-09T19:48:48.957Z,99886.38
2023-01-09T19:51:19.763Z,99895.88
2023-01-09T19:56:30.343Z,99892.50
2023-01-09T19:59:05.275Z,99908.06
2023-01-09T20:01:39.050Z,99908.09
2023-01-09T20:04:13.699Z,99915.94
2023-01-09T20:06:45.528Z,99912.50
2023-01-09T20:09:15.543Z,99914.22
2023-01-09T20:11:44.990Z,99920.25
2023-01-09T20:14:14.725Z,99922.00
2023-01-09T20:16:44.909Z,99928.13
2023-01-09T20:19:13.121Z,99924.69
2023-01-09T20:21:40.942Z,99933.34
2023-01-09T20:24:17.069Z,99936.81
2023-01-09T20:26:46.271Z,99944.63
2023-01-09T20:29:13.402Z,99950.75
2023-01-09T20:31:40.930Z,99945.53
2023-01-09T20:34:08.244Z,99955.09
2023-01-09T20:36:35.589Z,99957.75
2023-01-09T20:39:06.010Z,99957.78
2023-01-09T20:41:33.680Z,99964.59
2023-01-09T20:44:08.066Z,99966.28
2023-01-09T20:46:38.695Z,99962.00
2023-01-09T20:49:08.989Z,99963.72
2023-01-09T20:51:41.398Z,99966.44
2023-01-09T20:54:09.159Z,99966.47
2023-01-09T20:56:36.906Z,99979.63
2023-01-09T20:59:06.283Z,99975.25
2023-01-09T21:01:35.095Z,99982.28
2023-01-09T21:04:03.186Z,99986.63
2023-01-09T21:06:30.681Z,99997.88
2023-01-09T21:08:58.102Z,99999.56
2023-01-09T21:11:25.845Z,100005.66
2023-01-09T21:13:53.260Z,100003.16
2023-01-09T21:16:24.426Z,100007.53
2023-01-09T21:18:53.421Z,100014.44
2023-01-09T21:21:25.345Z,100013.56
2023-01-09T21:23:56.388Z,100018.78
2023-01-09T21:26:28.335Z,100024.06
2023-01-09T21:28:58.791Z,100023.25
2023-01-09T21:31:34.735Z,100031.88
2023-01-09T21:34:07.830Z,100023.25
2023-01-09T21:36:36.131Z,100032.84
2023-01-09T21:39:08.147Z,100034.41
2023-01-09T21:41:54.992Z,100035.28
2023-01-09T21:44:41.114Z,100033.56
2023-01-09T21:47:08.529Z,100035.31
2023-01-09T21:49:39.277Z,100038.81
2023-01-09T21:52:06.646Z,100043.13
2023-01-09T21:54:34.348Z,100039.63
2023-01-09T21:57:01.928Z,100048.38
2023-01-09T21:59:29.180Z,100053.72
2023-01-09T22:01:56.554Z,100060.63
2023-01-09T22:04:26.860Z,100071.06
2023-01-09T22:06:54.589Z,100064.91
2023-01-09T22:09:21.939Z,100076.31
2023-01-09T22:11:48.900Z,100078.03
2023-01-09T22:14:19.084Z,100072.84
2023-01-09T22:16:46.874Z,100078.03
2023-01-09T22:19:17.965Z,100086.72
2023-01-09T22:21:45.671Z,100081.53
2023-01-09T22:24:18.833Z,100095.56
2023-01-09T22:26:46.413Z,100093.81
2023-01-09T22:29:14.377Z,100105.16
